createdAt,value
2023-05-08T00:03:41.416Z,59.46
2023-05-08T00:06:09.925Z,59.52
2023-05-08T00:08:37.995Z,59.60
2023-05-08T00:11:06.610Z,59.68
2023-05-08T00:13:35.336Z,59.79
2023-05-08T00:16:03.625Z,59.88
2023-05-08T00:18:31.871Z,59.89
2023-05-08T00:21:00.059Z,59.95
2023-05-08T00:23:28.352Z,59.97
2023-05-08T00:25:56.648Z,59.98
2023-05-08T00:28:24.911Z,60.11
2023-05-08T00:30:52.974Z,60.05
2023-05-08T00:33:21.297Z,60.13
2023-05-08T00:35:49.521Z,60.22
2023-05-08T00:38:17.657Z,60.09
2023-05-08T00:40:46.013Z,60.21
2023-05-08T00:43:14.095Z,60.18
2023-05-08T00:45:42.616Z,60.15
2023-05-08T00:48:10.964Z,60.28
2023-05-08T00:50:39.436Z,60.36
2023-05-08T00:53:07.548Z,60.49
2023-05-08T00:55:36.358Z,60.69
2023-05-08T00:58:06.527Z,60.79
2023-05-08T01:00:34.937Z,60.85
2023-05-08T01:03:04.868Z,61.09
2023-05-08T01:05:33.808Z,61.14
2023-05-08T01:08:02.117Z,61.23
2023-05-08T01:10:47.236Z,61.25
2023-05-08T01:13:40.876Z,61.41
2023-05-08T01:16:35.623Z,61.44
2023-05-08T01:19:22.466Z,61.33
2023-05-08T01:22:01.065Z,61.55
2023-05-08T01:24:57.250Z,61.53
2023-05-08T01:28:09.468Z,61.51
2023-05-08T01:31:08.363Z,61.58
2023-05-08T01:34:34.319Z,61.56
2023-05-08T01:37:10.155Z,61.77
2023-05-08T01:39:56.116Z,61.99
2023-05-08T01:42:53.922Z,62.03
2023-05-08T01:45:31.334Z,62.04
2023-05-08T01:48:10.827Z,62.22
2023-05-08T01:50:52.676Z,62.35
2023-05-08T01:53:26.145Z,62.42
2023-05-08T01:56:00.405Z,62.44
2023-05-08T01:58:30.867Z,62.51
2023-05-08T02:01:02.363Z,62.58
2023-05-08T02:03:34.174Z,62.50
2023-05-08T02:06:03.510Z,62.47
2023-05-08T02:08:33.649Z,62.28
2023-05-08T02:11:04.292Z,62.40
2023-05-08T02:13:35.442Z,62.32
2023-05-08T02:16:05.460Z,62.34
2023-05-08T02:18:35.961Z,62.29
2023-05-08T02:21:05.694Z,62.37
2023-05-08T02:23:35.152Z,62.48
2023-05-08T02:26:04.795Z,62.35
2023-05-08T02:28:34.987Z,62.16
2023-05-08T02:31:05.399Z,62.20
2023-05-08T02:33:34.027Z,62.05
2023-05-08T02:36:04.312Z,61.94
2023-05-08T02:38:34.195Z,62.04
2023-05-08T02:41:06.677Z,61.82
2023-05-08T02:43:35.706Z,61.92
2023-05-08T02:46:09.884Z,61.73
2023-05-08T02:48:59.891Z,61.58
2023-05-08T02:51:47.341Z,61.41
2023-05-08T02:54:24.451Z,61.50
2023-05-08T02:57:03.638Z,61.49
2023-05-08T02:59:39.240Z,61.40
2023-05-08T03:02:11.616Z,61.24
2023-05-08T03:04:55.711Z,61.28
2023-05-08T03:07:28.380Z,61.19
2023-05-08T03:10:05.523Z,61.08
2023-05-08T03:12:41.428Z,60.98
2023-05-08T03:15:28.484Z,61.08
2023-05-08T03:18:03.249Z,60.96
2023-05-08T03:20:37.445Z,60.93
2023-05-08T03:23:08.697Z,60.75
2023-05-08T03:25:40.305Z,60.76
2023-05-08T03:28:10.984Z,60.76
2023-05-08T03:30:41.948Z,60.75
2023-05-08T03:33:12.779Z,60.88
2023-05-08T03:35:42.343Z,60.79
2023-05-08T03:38:10.575Z,60.68
2023-05-08T03:40:39.587Z,60.66
2023-05-08T03:43:08.493Z,60.56
2023-05-08T03:45:39.493Z,60.49
2023-05-08T03:48:10.062Z,60.33
2023-05-08T03:50:39.074Z,60.15
2023-05-08T03:53:07.250Z,60.21
2023-05-08T03:55:36.318Z,60.14
2023-05-08T03:58:29.728Z,60.03
2023-05-08T04:01:23.347Z,59.97
2023-05-08T04:04:10.295Z,60.15
2023-05-08T04:06:57.327Z,60.25
2023-05-08T04:10:09.756Z,60.10
2023-05-08T04:12:54.078Z,60.15
2023-05-08T04:15:27.227Z,60.21
2023-05-08T04:18:11.261Z,60.28
2023-05-08T04:20:42.303Z,60.29
2023-05-08T04:23:15.819Z,60.39
2023-05-08T04:25:45.940Z,60.37
2023-05-08T04:28:15.310Z,60.47
2023-05-08T04:30:44.539Z,60.44
2023-05-08T04:33:14.098Z,60.39
2023-05-08T04:35:42.716Z,60.59
2023-05-08T04:38:11.002Z,60.54
2023-05-08T04:40:39.146Z,60.70
2023-05-08T04:43:07.366Z,60.75
2023-05-08T04:45:36.353Z,60.78
2023-05-08T04:48:04.833Z,60.75
2023-05-08T04:50:32.900Z,60.78
2023-05-08T04:53:01.287Z,61.02
2023-05-08T04:55:29.353Z,60.99
2023-05-08T04:57:57.438Z,60.93
2023-05-08T05:00:25.686Z,61.00
2023-05-08T05:02:54.345Z,60.98
2023-05-08T05:05:24.162Z,60.98
2023-05-08T05:07:52.812Z,61.04
2023-05-08T05:10:21.023Z,61.10
2023-05-08T05:12:49.394Z,61.01
2023-05-08T05:15:17.678Z,60.92
2023-05-08T05:17:45.741Z,61.06
2023-05-08T05:20:15.545Z,60.99
2023-05-08T05:22:43.808Z,61.03
2023-05-08T05:25:12.119Z,61.19
2023-05-08T05:27:40.640Z,60.97
2023-05-08T05:30:08.999Z,60.92
2023-05-08T05:32:37.148Z,60.89
2023-05-08T05:35:06.815Z,60.87
2023-05-08T05:37:35.019Z,60.97
2023-05-08T05:40:03.754Z,61.02
2023-05-08T05:42:31.916Z,61.07
2023-05-08T05:44:59.979Z,61.10
2023-05-08T05:47:28.294Z,61.02
2023-05-08T05:49:58.255Z,61.07
2023-05-08T05:52:26.344Z,60.97
2023-05-08T05:54:54.591Z,61.05
2023-05-08T05:57:23.439Z,61.05
2023-05-08T05:59:52.637Z,60.98
2023-05-08T06:02:21.698Z,60.97
2023-05-08T06:04:52.129Z,60.87
2023-05-08T06:07:20.272Z,60.88
2023-05-08T06:09:48.275Z,60.87
2023-05-08T06:12:16.391Z,60.79
2023-05-08T06:14:45.056Z,60.75
2023-05-08T06:17:13.253Z,60.80
2023-05-08T06:19:42.129Z,60.79
2023-05-08T06:22:10.204Z,60.69
2023-05-08T06:24:38.445Z,60.69
2023-05-08T06:27:06.964Z,60.69
2023-05-08T06:29:37.194Z,60.74
2023-05-08T06:32:05.472Z,60.72
2023-05-08T06:34:33.835Z,60.73
2023-05-08T06:37:01.876Z,60.73
2023-05-08T06:39:30.112Z,60.82
2023-05-08T06:41:58.690Z,60.77
2023-05-08T06:44:26.819Z,60.67
2023-05-08T06:46:54.954Z,60.57
2023-05-08T06:49:23.515Z,60.54
2023-05-08T06:51:51.685Z,60.42
2023-05-08T06:54:20.047Z,60.31
2023-05-08T06:56:48.919Z,60.32
2023-05-08T06:59:17.059Z,60.48
2023-05-08T07:01:45.165Z,60.35
2023-05-08T07:04:14.050Z,60.37
2023-05-08T07:06:42.292Z,60.45
2023-05-08T07:09:10.546Z,60.43
2023-05-08T07:11:38.767Z,60.43
2023-05-08T07:14:07.301Z,60.42
2023-05-08T07:16:36.004Z,60.50
2023-05-08T07:19:04.263Z,60.48
2023-05-08T07:21:32.419Z,60.26
2023-05-08T07:24:00.514Z,60.17
2023-05-08T07:26:29.149Z,59.99
2023-05-08T07:28:57.335Z,59.96
2023-05-08T07:31:25.586Z,59.80
2023-05-08T07:33:54.357Z,59.99
2023-05-08T07:36:22.555Z,60.03
2023-05-08T07:38:50.702Z,60.09
2023-05-08T07:41:19.424Z,60.00
2023-05-08T07:43:47.609Z,59.90
2023-05-08T07:46:19.535Z,59.72
2023-05-08T07:48:47.881Z,59.52
2023-05-08T07:51:16.058Z,59.33
2023-05-08T07:53:45.268Z,59.23
2023-05-08T07:56:13.491Z,59.13
2023-05-08T07:58:41.559Z,58.88
2023-05-08T08:01:09.927Z,58.72
2023-05-08T08:03:38.731Z,58.62
2023-05-08T08:06:07.266Z,58.86
2023-05-08T08:08:36.104Z,58.99
2023-05-08T08:11:04.222Z,59.06
2023-05-08T08:13:32.611Z,59.08
2023-05-08T08:16:01.393Z,59.00
2023-05-08T08:18:29.696Z,58.98
2023-05-08T08:20:57.725Z,58.86
2023-05-08T08:23:25.919Z,58.82
2023-05-08T08:25:54.043Z,58.75
2023-05-08T08:28:23.383Z,58.62
2023-05-08T08:30:52.935Z,58.42
2023-05-08T08:33:21.618Z,58.31
2023-05-08T08:35:49.796Z,58.28
2023-05-08T08:38:18.617Z,58.16
2023-05-08T08:40:47.302Z,57.91
2023-05-08T08:43:15.559Z,57.80
2023-05-08T08:45:43.716Z,57.73
2023-05-08T08:48:13.211Z,57.53
2023-05-08T08:50:43.746Z,57.67
2023-05-08T08:53:22.189Z,57.79
2023-05-08T08:55:52.319Z,57.79
2023-05-08T08:58:33.553Z,57.83
2023-05-08T09:01:03.176Z,57.83
2023-05-08T09:03:34.430Z,57.78
2023-05-08T09:06:03.259Z,57.79
2023-05-08T09:08:32.376Z,57.61
2023-05-08T09:11:02.500Z,57.51
2023-05-08T09:13:31.259Z,57.77
2023-05-08T09:16:00.526Z,57.77
2023-05-08T09:18:29.969Z,57.94
2023-05-08T09:20:59.048Z,57.93
2023-05-08T09:23:28.322Z,58.16
2023-05-08T09:25:57.149Z,58.21
2023-05-08T09:28:26.552Z,58.24
2023-05-08T09:30:59.612Z,58.23
2023-05-08T09:33:29.419Z,57.98
2023-05-08T09:35:58.097Z,58.15
2023-05-08T09:38:37.905Z,58.36
2023-05-08T09:41:11.356Z,57.85
2023-05-08T09:43:40.169Z,57.92
2023-05-08T09:46:34.780Z,57.89
2023-05-08T09:49:03.779Z,57.91
2023-05-08T09:51:32.447Z,57.91
2023-05-08T09:54:00.608Z,57.70
2023-05-08T09:56:47.356Z,57.38
2023-05-08T09:59:45.022Z,57.45
2023-05-08T10:02:16.000Z,57.21
2023-05-08T10:04:44.232Z,56.99
2023-05-08T10:07:12.584Z,57.00
2023-05-08T10:09:57.390Z,57.00
2023-05-08T10:12:26.960Z,56.82
2023-05-08T10:14:56.013Z,56.55
2023-05-08T10:17:28.118Z,56.75
2023-05-08T10:19:59.702Z,57.14
2023-05-08T10:22:28.662Z,57.27
2023-05-08T10:24:59.209Z,56.85
2023-05-08T10:27:59.957Z,56.97
2023-05-08T10:30:31.094Z,57.03
2023-05-08T10:33:03.360Z,57.47
2023-05-08T10:35:31.759Z,57.43
2023-05-08T10:38:00.542Z,57.10
2023-05-08T10:40:28.706Z,56.80
2023-05-08T10:42:58.804Z,57.12
2023-05-08T10:45:27.585Z,57.39
2023-05-08T10:48:24.178Z,57.28
2023-05-08T10:51:03.938Z,57.08
2023-05-08T10:53:40.307Z,57.21
2023-05-08T10:56:08.517Z,57.47
2023-05-08T10:58:37.884Z,57.36
2023-05-08T11:01:12.776Z,57.69
2023-05-08T11:03:46.843Z,57.80
2023-05-08T11:06:15.612Z,57.86
2023-05-08T11:08:46.430Z,57.91
2023-05-08T11:11:30.664Z,58.02
2023-05-08T11:14:10.340Z,57.84
2023-05-08T11:17:22.935Z,57.80
2023-05-08T11:20:02.411Z,58.16
2023-05-08T11:22:32.764Z,58.35
2023-05-08T11:25:04.104Z,58.18
2023-05-08T11:27:39.166Z,58.02
2023-05-08T11:30:40.670Z,57.83
2023-05-08T11:33:09.592Z,57.94
2023-05-08T11:36:14.309Z,57.96
2023-05-08T11:38:44.739Z,58.21
2023-05-08T11:41:23.743Z,58.21
2023-05-08T11:44:04.030Z,58.07
2023-05-08T11:47:02.929Z,57.97
2023-05-08T11:49:31.953Z,57.64
2023-05-08T11:52:00.256Z,57.38
2023-05-08T11:54:31.698Z,57.33
2023-05-08T11:57:00.026Z,57.24
2023-05-08T11:59:28.245Z,57.18
2023-05-08T12:02:07.885Z,56.84
2023-05-08T12:04:47.124Z,56.82
2023-05-08T12:07:15.770Z,56.91
2023-05-08T12:09:43.852Z,56.68
2023-05-08T12:12:13.061Z,56.88
2023-05-08T12:14:41.223Z,57.29
2023-05-08T12:17:10.139Z,57.43
2023-05-08T12:19:38.979Z,57.03
2023-05-08T12:22:08.927Z,56.85
2023-05-08T12:24:37.116Z,56.55
2023-05-08T12:27:05.267Z,56.35
2023-05-08T12:29:36.313Z,56.26
2023-05-08T12:32:05.020Z,55.90
2023-05-08T12:34:33.301Z,56.09
2023-05-08T12:37:03.124Z,56.22
2023-05-08T12:39:36.405Z,56.16
2023-05-08T12:42:04.678Z,56.29
2023-05-08T12:44:32.722Z,56.22
2023-05-08T12:47:00.942Z,56.15
2023-05-08T12:49:31.517Z,56.31
2023-05-08T12:52:12.698Z,56.61
2023-05-08T12:54:46.794Z,56.79
2023-05-08T12:57:17.856Z,57.08
2023-05-08T12:59:47.142Z,57.19
2023-05-08T13:02:18.080Z,57.20
2023-05-08T13:04:47.052Z,57.54
2023-05-08T13:07:15.436Z,57.66
2023-05-08T13:10:00.342Z,57.45
2023-05-08T13:12:29.236Z,57.44
2023-05-08T13:14:57.394Z,58.06
2023-05-08T13:17:25.703Z,58.16
2023-05-08T13:19:53.975Z,58.29
2023-05-08T13:22:22.170Z,58.38
2023-05-08T13:24:50.312Z,58.80
2023-05-08T13:27:19.008Z,59.13
2023-05-08T13:29:47.311Z,59.36
2023-05-08T13:32:15.577Z,59.71
2023-05-08T13:34:49.662Z,59.83
2023-05-08T13:37:19.760Z,59.76
2023-05-08T13:39:49.366Z,59.89
2023-05-08T13:42:18.397Z,60.00
2023-05-08T13:44:47.181Z,59.75
2023-05-08T13:47:16.199Z,59.48
2023-05-08T13:49:44.785Z,59.21
2023-05-08T13:52:13.167Z,58.69
2023-05-08T13:54:41.343Z,57.90
2023-05-08T13:57:09.739Z,57.77
2023-05-08T13:59:37.973Z,57.62
2023-05-08T14:02:07.051Z,57.63
2023-05-08T14:04:35.950Z,57.33
2023-05-08T14:07:04.633Z,57.18
2023-05-08T14:09:34.384Z,56.45
2023-05-08T14:12:02.748Z,55.52
2023-05-08T14:14:32.421Z,55.85
2023-05-08T14:17:02.569Z,56.00
2023-05-08T14:19:30.709Z,55.78
2023-05-08T14:21:59.285Z,56.02
2023-05-08T14:24:28.386Z,56.06
2023-05-08T14:26:56.529Z,56.18
2023-05-08T14:29:26.071Z,56.33
2023-05-08T14:31:54.756Z,56.29
2023-05-08T14:34:22.907Z,56.64
2023-05-08T14:36:51.013Z,57.06
2023-05-08T14:39:20.312Z,57.30
2023-05-08T14:42:13.710Z,57.13
2023-05-08T14:44:37.061Z,57.51
2023-05-08T14:47:05.392Z,57.58
2023-05-08T14:52:22.517Z,57.67
2023-05-08T14:54:50.741Z,57.61
2023-05-08T14:57:20.220Z,57.67
2023-05-08T14:59:55.118Z,57.56
2023-05-08T15:02:24.509Z,57.70
2023-05-08T15:04:53.030Z,57.56
2023-05-08T15:07:21.676Z,57.73
2023-05-08T15:09:50.787Z,57.70
2023-05-08T15:12:19.007Z,57.78
2023-05-08T15:14:49.228Z,57.76
2023-05-08T15:17:18.429Z,58.12
2023-05-08T15:19:48.414Z,58.07
2023-05-08T15:22:17.738Z,58.57
2023-05-08T15:24:45.819Z,58.44
2023-05-08T15:27:14.693Z,58.33
2023-05-08T15:29:42.769Z,58.14
2023-05-08T15:32:11.180Z,57.91
2023-05-08T15:34:40.609Z,57.98
2023-05-08T15:37:09.248Z,58.06
2023-05-08T15:39:37.455Z,57.66
2023-05-08T15:42:06.736Z,57.16
2023-05-08T15:44:53.243Z,57.25
2023-05-08T15:47:23.540Z,56.79
2023-05-08T15:49:53.893Z,57.09
2023-05-08T15:52:22.570Z,57.14
2023-05-08T15:54:51.637Z,57.49
2023-05-08T15:57:20.812Z,57.84
2023-05-08T15:59:48.901Z,57.89
2023-05-08T16:02:18.468Z,57.53
2023-05-08T16:04:47.322Z,57.74
2023-05-08T16:07:15.862Z,57.73
2023-05-08T16:09:45.821Z,57.75
2023-05-08T16:12:14.214Z,57.81
2023-05-08T16:14:42.694Z,57.38
2023-05-08T16:17:11.422Z,57.59
2023-05-08T16:19:40.356Z,57.55
2023-05-08T16:22:09.674Z,57.68
2023-05-08T16:24:39.398Z,57.85
2023-05-08T16:27:07.474Z,57.56
2023-05-08T16:29:35.660Z,57.38
2023-05-08T16:32:04.395Z,57.55
2023-05-08T16:34:32.462Z,57.68
2023-05-08T16:37:00.609Z,57.76
2023-05-08T16:39:29.606Z,57.73
2023-05-08T16:41:57.795Z,58.04
2023-05-08T16:44:26.065Z,58.00
2023-05-08T16:46:54.487Z,58.02
2023-05-08T16:49:22.697Z,58.40
2023-05-08T16:51:51.015Z,58.37
2023-05-08T16:54:20.103Z,58.19
2023-05-08T16:56:48.728Z,58.28
2023-05-08T16:59:17.005Z,58.34
2023-05-08T17:01:46.673Z,58.18
2023-05-08T17:04:15.597Z,58.14
2023-05-08T17:06:43.869Z,58.15
2023-05-08T17:09:12.995Z,58.57
2023-05-08T17:11:41.625Z,58.55
2023-05-08T17:14:09.628Z,58.85
2023-05-08T17:16:38.700Z,59.01
2023-05-08T17:19:07.345Z,58.93
2023-05-08T17:21:36.107Z,58.85
2023-05-08T17:24:06.323Z,58.93
2023-05-08T17:26:36.372Z,59.00
2023-05-08T17:29:05.433Z,59.11
2023-05-08T17:31:33.840Z,59.11
2023-05-08T17:34:02.097Z,59.39
2023-05-08T17:36:31.569Z,59.44
2023-05-08T17:39:00.330Z,59.47
2023-05-08T17:41:29.478Z,59.42
2023-05-08T17:43:58.359Z,59.45
2023-05-08T17:46:28.330Z,59.46
2023-05-08T17:48:57.839Z,59.58
2023-05-08T17:51:26.437Z,59.48
2023-05-08T17:53:54.926Z,59.44
2023-05-08T17:56:23.613Z,59.80
2023-05-08T17:58:52.335Z,59.88
2023-05-08T18:01:20.905Z,59.92
2023-05-08T18:03:53.350Z,59.80
2023-05-08T18:06:21.918Z,59.77
2023-05-08T18:08:50.236Z,60.02
2023-05-08T18:11:23.402Z,60.16
2023-05-08T18:13:53.622Z,59.98
2023-05-08T18:16:22.586Z,60.05
2023-05-08T18:18:51.130Z,60.11
2023-05-08T18:21:19.281Z,60.33
2023-05-08T18:23:47.432Z,60.44
2023-05-08T18:26:16.492Z,60.52
2023-05-08T18:28:45.261Z,60.44
2023-05-08T18:31:13.458Z,60.40
2023-05-08T18:33:42.329Z,60.54
2023-05-08T18:36:10.459Z,60.66
2023-05-08T18:38:38.893Z,60.76
2023-05-08T18:41:09.768Z,60.81
2023-05-08T18:43:38.087Z,61.09
2023-05-08T18:46:13.596Z,61.21
2023-05-08T18:48:42.187Z,61.30
2023-05-08T18:51:11.081Z,61.45
2023-05-08T18:53:39.946Z,61.90
2023-05-08T18:56:08.146Z,62.13
2023-05-08T18:58:36.564Z,62.12
2023-05-08T19:01:05.649Z,62.23
2023-05-08T19:03:34.609Z,62.21
2023-05-08T19:06:03.028Z,62.34
2023-05-08T19:08:31.157Z,62.41
2023-05-08T19:10:59.342Z,62.52
2023-05-08T19:13:27.699Z,62.62
2023-05-08T19:15:56.755Z,62.73
2023-05-08T19:18:25.131Z,62.71
2023-05-08T19:20:54.375Z,62.69
2023-05-08T19:23:23.077Z,62.85
2023-05-08T19:25:51.157Z,62.80
2023-05-08T19:28:19.847Z,62.75
2023-05-08T19:30:48.858Z,62.91
2023-05-08T19:33:16.965Z,62.87
2023-05-08T19:35:45.161Z,62.97
2023-05-08T19:38:14.332Z,63.06
2023-05-08T19:40:55.660Z,62.99
2023-05-08T19:43:26.857Z,63.07
2023-05-08T19:45:55.921Z,63.09
2023-05-08T19:48:24.735Z,63.17
2023-05-08T19:50:55.105Z,63.24
2023-05-08T19:53:23.929Z,63.23
2023-05-08T19:55:52.144Z,63.37
2023-05-08T19:58:21.135Z,63.32
2023-05-08T20:00:51.524Z,63.42
2023-05-08T20:03:20.500Z,63.35
2023-05-08T20:05:50.520Z,63.40
2023-05-08T20:08:19.283Z,63.55
2023-05-08T20:10:48.410Z,63.59
2023-05-08T20:13:19.634Z,63.63
2023-05-08T20:15:48.787Z,63.70
2023-05-08T20:18:16.860Z,63.72
2023-05-08T20:20:45.622Z,63.76
2023-05-08T20:23:13.753Z,63.78
2023-05-08T20:25:41.836Z,63.77
2023-05-08T20:28:10.128Z,63.88
2023-05-08T20:30:38.174Z,63.89
2023-05-08T20:33:06.579Z,64.01
2023-05-08T20:35:35.249Z,64.00
2023-05-08T20:38:03.824Z,64.05
2023-05-08T20:40:31.920Z,64.12
2023-05-08T20:43:00.358Z,64.20
2023-05-08T20:45:28.532Z,64.34
2023-05-08T20:47:56.625Z,64.33
2023-05-08T20:50:24.931Z,64.46
2023-05-08T20:52:53.421Z,64.48
2023-05-08T20:55:21.722Z,64.50
2023-05-08T20:57:49.916Z,64.56
2023-05-08T21:00:18.311Z,64.58
2023-05-08T21:02:46.611Z,64.60
2023-05-08T21:05:15.280Z,64.60
2023-05-08T21:07:43.605Z,64.63
2023-05-08T21:10:12.348Z,64.74
2023-05-08T21:12:40.763Z,64.75
2023-05-08T21:15:08.972Z,64.79
2023-05-08T21:17:37.417Z,64.81
2023-05-08T21:20:06.382Z,64.87
2023-05-08T21:22:34.850Z,65.02
2023-05-08T21:25:03.146Z,65.12
2023-05-08T21:27:31.750Z,65.21
2023-05-08T21:29:59.792Z,65.27
2023-05-08T21:32:27.708Z,65.35
2023-05-08T21:34:56.778Z,65.46
2023-05-08T21:37:25.040Z,65.52
2023-05-08T21:39:53.123Z,65.51
2023-05-08T21:42:21.371Z,65.62
2023-05-08T21:44:49.599Z,65.61
2023-05-08T21:47:17.636Z,65.58
2023-05-08T21:49:45.729Z,65.71
2023-05-08T21:52:14.079Z,65.70
2023-05-08T21:54:42.781Z,65.75
2023-05-08T21:57:11.180Z,65.78
2023-05-08T21:59:39.497Z,65.83
2023-05-08T22:02:07.793Z,65.86
2023-05-08T22:04:36.395Z,65.94
2023-05-08T22:07:05.060Z,65.96
2023-05-08T22:09:33.128Z,65.98
2023-05-08T22:12:01.695Z,66.02
2023-05-08T22:14:29.791Z,65.96
2023-05-08T22:16:57.958Z,66.01
2023-05-08T22:19:26.160Z,66.10
2023-05-08T22:21:54.233Z,66.25
2023-05-08T22:24:23.591Z,66.21
2023-05-08T22:26:52.303Z,66.17
2023-05-08T22:29:20.399Z,66.28
2023-05-08T22:31:48.629Z,66.27
2023-05-08T22:34:17.258Z,66.33
2023-05-08T22:36:45.609Z,66.41
2023-05-08T22:39:13.751Z,66.43
2023-05-08T22:41:42.012Z,66.53
2023-05-08T22:44:11.312Z,66.58
2023-05-08T22:46:40.009Z,66.68
2023-05-08T22:49:09.424Z,66.67
2023-05-08T22:51:37.905Z,66.51
2023-05-08T22:54:06.066Z,66.42
2023-05-08T22:56:34.498Z,66.37
2023-05-08T22:59:02.978Z,66.41
2023-05-08T23:01:31.155Z,66.23
2023-05-08T23:03:59.791Z,66.08
2023-05-08T23:06:28.032Z,66.13
2023-05-08T23:08:56.670Z,66.14
2023-05-08T23:11:25.865Z,66.03
2023-05-08T23:13:54.194Z,66.05
2023-05-08T23:16:22.309Z,66.06
2023-05-08T23:18:51.079Z,65.96
2023-05-08T23:21:19.270Z,65.81
2023-05-08T23:23:48.063Z,65.78
2023-05-08T23:26:16.234Z,65.77
2023-05-08T23:28:44.330Z,65.83
2023-05-08T23:31:12.590Z,65.76
2023-05-08T23:33:41.403Z,65.61
2023-05-08T23:36:10.133Z,65.67
2023-05-08T23:38:38.166Z,65.56
2023-05-08T23:41:06.696Z,65.65
2023-05-08T23:43:35.768Z,65.60
2023-05-08T23:46:04.286Z,65.73
2023-05-08T23:48:33.125Z,65.60
2023-05-08T23:51:01.258Z,65.59
2023-05-08T23:53:29.760Z,65.62
2023-05-08T23:55:58.221Z,65.60
2023-05-08T23:58:26.318Z,65.65
